Time;durP1;ratioP1;P1;durP2;ratioP2;P2;SDS_P1;SDS_P2;PMS_P1;PMS_P2;Temp;Humidity;BMP_temperature;BMP_pressure;BME280_temperature;BME280_humidity;BME280_pressure;Samples;Min_cycle;Max_cycle;Signal;HPM_P1;HPM_P2
2021/11/30 00:00:06;;;;;;;1.45;1.05;;;7.40;76.60;;;;;;4995738;28;20023;-92
2021/11/30 00:02:35;;;;;;;1.48;1.30;;;7.50;76.60;;;;;;4995582;28;20050;-92
2021/11/30 00:05:01;;;;;;;1.30;1.20;;;7.40;76.60;;;;;;4997717;28;20103;-93
2021/11/30 00:07:27;;;;;;;1.40;1.30;;;7.40;76.60;;;;;;4979976;28;20125;-92
2021/11/30 00:12:23;;;;;;;1.63;1.52;;;7.40;76.60;;;;;;4994968;28;20110;-91
2021/11/30 00:14:52;;;;;;;2.75;1.45;;;7.40;76.60;;;;;;4979145;28;20026;-91
2021/11/30 00:17:19;;;;;;;1.83;1.20;;;7.50;76.60;;;;;;4978949;28;20034;-92
2021/11/30 00:19:46;;;;;;;1.52;1.40;;;7.40;76.50;;;;;;4996527;28;20030;-91
2021/11/30 00:22:21;;;;;;;2.72;1.30;;;7.50;76.60;;;;;;4979132;28;20034;-91
2021/11/30 00:24:48;;;;;;;1.98;1.63;;;7.50;76.60;;;;;;4995994;28;20076;-91
2021/11/30 00:27:17;;;;;;;2.38;1.52;;;7.50;76.60;;;;;;4995530;28;20037;-92
2021/11/30 00:29:43;;;;;;;1.40;1.30;;;7.50;76.60;;;;;;4995196;28;20062;-92
2021/11/30 00:32:10;;;;;;;1.70;1.48;;;7.50;76.50;;;;;;4995030;28;20031;-93
2021/11/30 00:34:36;;;;;;;1.77;1.50;;;7.50;76.60;;;;;;4995466;28;20100;-93
2021/11/30 00:37:03;;;;;;;2.47;1.80;;;7.50;76.60;;;;;;4996099;28;20050;-92
2021/11/30 00:39:29;;;;;;;3.70;1.80;;;7.50;76.60;;;;;;4996403;28;20029;-93
2021/11/30 00:41:58;;;;;;;2.95;1.90;;;7.50;76.50;;;;;;5012651;28;20372;-93
2021/11/30 00:44:28;;;;;;;2.20;1.65;;;7.50;76.50;;;;;;4979011;28;20120;-92
2021/11/30 00:46:56;;;;;;;2.60;2.05;;;7.50;76.50;;;;;;4995158;28;20026;-93
2021/11/30 00:49:25;;;;;;;3.67;2.33;;;7.50;76.50;;;;;;4996291;28;20019;-93
2021/11/30 00:51:53;;;;;;;3.08;2.00;;;7.50;76.60;;;;;;4995248;28;20120;-93
2021/11/30 00:54:21;;;;;;;2.47;1.80;;;7.50;76.60;;;;;;4995318;28;20050;-93
2021/11/30 00:56:50;;;;;;;3.58;2.17;;;7.50;76.50;;;;;;4995850;28;20030;-94
2021/11/30 00:59:16;;;;;;;3.35;2.22;;;7.50;76.50;;;;;;4996817;28;20037;-92
2021/11/30 01:01:45;;;;;;;4.03;2.17;;;7.60;76.50;;;;;;4995623;28;20367;-86
2021/11/30 01:04:11;;;;;;;2.97;2.20;;;7.50;76.50;;;;;;4994028;28;20145;-84
2021/11/30 01:06:37;;;;;;;5.32;2.60;;;7.50;76.50;;;;;;4978668;28;20068;-85
2021/11/30 01:09:05;;;;;;;3.78;2.38;;;7.60;76.50;;;;;;4994571;28;20092;-86
2021/11/30 01:11:32;;;;;;;3.72;2.42;;;7.50;76.50;;;;;;4994420;28;20066;-86
2021/11/30 01:13:58;;;;;;;3.85;2.22;;;7.60;76.50;;;;;;4977977;28;20061;-86
2021/11/30 01:16:24;;;;;;;5.07;2.70;;;7.60;76.50;;;;;;4977774;28;20099;-86
2021/11/30 01:41:20;;;;;;;3.03;2.10;;;7.40;76.60;;;;;;4972814;23;20076;-85
2021/11/30 01:43:47;;;;;;;3.85;2.20;;;7.50;76.70;;;;;;4927372;29;20036;-86
2021/11/30 01:51:30;;;;;;;3.38;2.17;;;7.50;76.70;;;;;;4917674;29;20485;-85
2021/11/30 01:53:57;;;;;;;4.07;2.40;;;7.50;76.60;;;;;;4916251;29;20035;-85
2021/11/30 01:56:23;;;;;;;4.25;2.35;;;7.50;76.60;;;;;;4936016;29;20035;-86
2021/11/30 01:58:50;;;;;;;3.78;2.55;;;7.60;76.70;;;;;;4946524;28;20043;-85
2021/11/30 02:01:17;;;;;;;4.35;2.60;;;7.60;76.60;;;;;;4930618;29;20085;-86
2021/11/30 02:03:42;;;;;;;4.57;2.67;;;7.60;76.60;;;;;;4937505;29;20032;-85
2021/11/30 02:06:09;;;;;;;5.40;2.83;;;7.50;76.50;;;;;;4922260;29;20036;-86
2021/11/30 02:08:35;;;;;;;3.70;2.38;;;7.60;76.60;;;;;;4938782;29;20024;-85
2021/11/30 02:11:01;;;;;;;3.60;2.55;;;7.60;76.50;;;;;;4923087;29;20070;-87
2021/11/30 02:13:27;;;;;;;4.65;2.72;;;7.60;76.50;;;;;;4916436;29;20457;-86
2021/11/30 02:15:58;;;;;;;5.68;2.78;;;7.60;76.50;;;;;;4942830;29;20106;-86
2021/11/30 02:18:24;;;;;;;4.18;2.60;;;7.60;76.50;;;;;;4947510;29;20110;-84
2021/11/30 02:20:57;;;;;;;5.22;3.03;;;7.60;76.50;;;;;;4923214;29;20473;-85
2021/11/30 02:23:41;;;;;;;5.95;3.33;;;7.60;76.50;;;;;;4935750;29;20038;-86
2021/11/30 02:26:11;;;;;;;5.78;3.15;;;7.60;76.50;;;;;;4942002;29;20032;-90
2021/11/30 02:28:43;;;;;;;5.07;2.90;;;7.60;76.50;;;;;;4946638;29;20095;-86
2021/11/30 02:31:12;;;;;;;5.43;2.95;;;7.60;76.50;;;;;;4932755;29;20035;-86
2021/11/30 02:33:38;;;;;;;5.18;2.97;;;7.60;76.50;;;;;;4932035;29;20042;-86
2021/11/30 02:36:31;;;;;;;5.05;2.75;;;7.60;76.40;;;;;;4931146;29;20425;-87
2021/11/30 02:39:00;;;;;;;4.78;3.28;;;7.60;76.60;;;;;;4930200;29;20091;-86
2021/11/30 02:41:27;;;;;;;5.13;2.80;;;7.60;76.40;;;;;;4935118;29;20058;-86
2021/11/30 02:43:53;;;;;;;5.55;3.20;;;7.60;76.40;;;;;;4936296;29;20031;-86
2021/11/30 02:46:56;;;;;;;5.80;3.20;;;7.60;76.50;;;;;;4940282;29;20035;-85
2021/11/30 02:49:26;;;;;;;5.03;3.13;;;7.60;76.50;;;;;;4931227;29;20063;-85
2021/11/30 02:51:56;;;;;;;5.22;3.08;;;7.60;76.40;;;;;;4943399;28;20071;-84
2021/11/30 02:54:23;;;;;;;5.57;3.40;;;7.60;76.50;;;;;;4929419;28;20101;-84
2021/11/30 02:56:56;;;;;;;5.43;3.38;;;7.60;76.50;;;;;;4925370;29;20031;-87
2021/11/30 02:59:23;;;;;;;4.47;3.03;;;7.60;76.50;;;;;;4950708;28;20437;-85
2021/11/30 03:01:54;;;;;;;4.80;2.88;;;7.60;76.50;;;;;;4922098;29;20440;-85
2021/11/30 03:04:20;;;;;;;6.20;3.70;;;7.60;76.50;;;;;;4934965;29;20066;-85
2021/11/30 03:06:46;;;;;;;5.50;3.50;;;7.60;76.40;;;;;;4924996;29;20059;-85
2021/11/30 03:09:12;;;;;;;5.25;2.90;;;7.60;76.50;;;;;;4918647;29;20058;-85
2021/11/30 03:11:38;;;;;;;5.88;3.22;;;7.60;76.50;;;;;;4932760;29;20110;-85
2021/11/30 03:14:04;;;;;;;5.22;3.13;;;7.60;76.40;;;;;;4953784;28;20035;-86
2021/11/30 03:16:34;;;;;;;5.00;3.13;;;7.60;76.40;;;;;;4923521;29;20441;-85
2021/11/30 03:19:00;;;;;;;4.45;3.10;;;7.60;76.50;;;;;;4935779;29;20031;-89
2021/11/30 03:21:26;;;;;;;4.90;3.05;;;7.60;76.40;;;;;;4937519;29;20031;-85
2021/11/30 03:23:56;;;;;;;6.60;3.17;;;7.60;76.40;;;;;;4933124;29;20097;-85
2021/11/30 03:26:21;;;;;;;4.55;3.30;;;7.60;76.40;;;;;;4937660;28;20032;-85
2021/11/30 03:28:48;;;;;;;5.75;3.40;;;7.60;76.40;;;;;;4908918;29;20544;-86
2021/11/30 03:34:01;;;;;;;4.75;3.30;;;7.60;76.50;;;;;;4930044;28;20035;-85
2021/11/30 03:36:31;;;;;;;6.38;3.47;;;7.60;76.40;;;;;;4934228;29;20099;-86
2021/11/30 03:38:58;;;;;;;4.65;3.35;;;7.60;76.50;;;;;;4905457;29;20028;-89
2021/11/30 03:41:25;;;;;;;4.03;3.28;;;7.60;76.50;;;;;;4938839;29;20424;-85
2021/11/30 03:43:51;;;;;;;4.32;3.05;;;7.60;76.50;;;;;;4923730;29;20047;-88
2021/11/30 03:46:17;;;;;;;4.65;3.20;;;7.60;76.50;;;;;;4887507;29;20040;-87
2021/11/30 03:48:43;;;;;;;4.97;3.40;;;7.60;76.50;;;;;;4948823;28;20030;-85
2021/11/30 03:51:08;;;;;;;5.03;3.50;;;7.60;76.50;;;;;;4931862;29;20411;-85
2021/11/30 03:53:34;;;;;;;4.63;3.58;;;7.60;76.50;;;;;;4929810;29;20043;-85
2021/11/30 03:56:00;;;;;;;5.15;3.72;;;7.60;76.50;;;;;;4921488;28;20031;-85
2021/11/30 03:58:26;;;;;;;5.05;3.47;;;7.60;76.50;;;;;;4931487;29;20035;-85
2021/11/30 04:00:51;;;;;;;5.07;3.63;;;7.60;76.50;;;;;;4901275;29;20065;-88
2021/11/30 04:03:17;;;;;;;4.97;3.42;;;7.60;76.50;;;;;;4904185;29;20396;-85
2021/11/30 04:05:43;;;;;;;4.75;3.70;;;7.60;76.50;;;;;;4930413;29;20041;-84
2021/11/30 04:08:09;;;;;;;4.47;3.75;;;7.60;76.50;;;;;;4899865;29;20039;-85
2021/11/30 04:10:34;;;;;;;5.25;3.60;;;7.60;76.50;;;;;;4915291;29;20023;-84
2021/11/30 04:13:00;;;;;;;6.82;4.00;;;7.60;76.50;;;;;;4932860;29;20087;-86
2021/11/30 04:15:26;;;;;;;4.57;3.60;;;7.60;76.50;;;;;;4928443;29;20038;-86
2021/11/30 04:17:52;;;;;;;4.70;3.60;;;7.60;77.20;;;;;;4936317;29;20483;-85
2021/11/30 04:20:18;;;;;;;4.53;3.40;;;7.60;76.50;;;;;;4921584;28;20111;-87
2021/11/30 04:22:43;;;;;;;5.20;3.67;;;7.60;76.50;;;;;;4938475;29;20035;-86
2021/11/30 04:25:12;;;;;;;4.72;3.70;;;7.60;76.50;;;;;;4936020;29;20028;-83
2021/11/30 04:27:38;;;;;;;5.80;3.97;;;7.60;76.60;;;;;;4960540;28;20027;-83
2021/11/30 04:30:05;;;;;;;4.95;3.50;;;7.60;76.60;;;;;;4934435;29;20126;-83
2021/11/30 04:32:31;;;;;;;5.43;3.70;;;7.60;76.60;;;;;;4923038;28;20114;-84
2021/11/30 04:34:57;;;;;;;4.07;3.30;;;7.60;76.60;;;;;;4933198;28;20573;-85
2021/11/30 04:37:23;;;;;;;4.70;3.25;;;7.60;76.60;;;;;;4935533;29;20496;-84
2021/11/30 04:39:49;;;;;;;4.32;3.40;;;7.60;76.60;;;;;;4935911;29;20043;-85
2021/11/30 04:42:15;;;;;;;5.45;3.90;;;7.60;76.70;;;;;;4934785;29;20056;-84
2021/11/30 04:44:51;;;;;;;4.00;3.10;;;7.60;76.70;;;;;;4905121;28;20043;-83
2021/11/30 04:47:17;;;;;;;3.58;3.00;;;7.60;76.70;;;;;;4921495;29;20032;-84
2021/11/30 04:49:59;;;;;;;4.10;3.25;;;7.70;76.80;;;;;;4933730;29;20030;-84
2021/11/30 04:52:25;;;;;;;3.42;3.00;;;7.60;76.80;;;;;;4933300;29;20051;-84
2021/11/30 04:54:51;;;;;;;3.67;3.05;;;7.60;76.80;;;;;;4939074;28;20027;-85
2021/11/30 04:57:17;;;;;;;3.92;2.92;;;7.60;76.80;;;;;;4942968;28;20042;-84
2021/11/30 04:59:43;;;;;;;3.78;3.03;;;7.70;76.80;;;;;;4942562;29;20042;-87
2021/11/30 05:02:08;;;;;;;4.20;3.33;;;7.70;76.90;;;;;;4922803;29;20035;-84
2021/11/30 05:04:36;;;;;;;3.33;2.70;;;7.70;76.80;;;;;;4938876;29;20055;-84
2021/11/30 05:07:02;;;;;;;3.35;3.00;;;7.70;76.90;;;;;;4922338;29;20540;-84
2021/11/30 05:09:28;;;;;;;3.42;2.83;;;7.70;76.90;;;;;;4902559;28;20070;-86
2021/11/30 05:11:54;;;;;;;3.38;2.60;;;7.70;76.90;;;;;;4918916;29;20075;-83
2021/11/30 05:14:20;;;;;;;3.50;2.70;;;7.70;76.90;;;;;;4890554;29;20499;-91
2021/11/30 05:16:45;;;;;;;3.80;2.60;;;7.70;76.80;;;;;;4898656;29;20035;-86
2021/11/30 05:19:11;;;;;;;3.13;2.60;;;7.80;76.90;;;;;;4928883;28;20035;-90
2021/11/30 05:21:37;;;;;;;2.67;2.45;;;7.80;76.90;;;;;;4920679;29;20035;-85
2021/11/30 05:24:06;;;;;;;3.85;2.63;;;7.80;76.90;;;;;;4937772;29;20131;-84
2021/11/30 05:26:33;;;;;;;2.83;2.42;;;7.80;76.90;;;;;;4927925;29;20035;-86
2021/11/30 05:28:58;;;;;;;3.75;2.40;;;7.80;76.90;;;;;;4935065;29;20028;-85
2021/11/30 05:31:24;;;;;;;3.25;2.60;;;7.80;76.90;;;;;;4929368;29;20046;-86
2021/11/30 05:33:50;;;;;;;2.95;2.38;;;7.80;76.90;;;;;;4924857;29;20475;-88
2021/11/30 05:36:20;;;;;;;3.20;2.63;;;7.90;76.90;;;;;;4953142;28;20524;-88
2021/11/30 05:38:46;;;;;;;2.70;2.42;;;7.90;77.00;;;;;;4932675;29;20058;-88
2021/11/30 05:41:15;;;;;;;2.33;2.13;;;7.90;76.90;;;;;;4937703;29;20757;-87
2021/11/30 05:43:41;;;;;;;2.50;2.30;;;7.90;76.90;;;;;;4936792;29;20151;-88
2021/11/30 05:46:06;;;;;;;2.40;2.20;;;8.00;76.90;;;;;;4914249;29;20122;-87
2021/11/30 05:48:33;;;;;;;2.63;2.30;;;8.00;76.90;;;;;;4928377;29;20042;-90
2021/11/30 05:51:00;;;;;;;2.28;2.08;;;8.00;76.90;;;;;;4928345;29;20077;-87
2021/11/30 05:53:26;;;;;;;2.45;2.20;;;8.00;76.90;;;;;;4915666;29;20054;-87
2021/11/30 05:55:55;;;;;;;2.20;2.00;;;8.00;76.90;;;;;;4917836;29;20035;-88
2021/11/30 05:58:22;;;;;;;3.20;2.38;;;8.00;76.90;;;;;;4945478;28;20024;-87
2021/11/30 06:00:49;;;;;;;2.80;2.15;;;8.10;76.90;;;;;;4940132;28;20031;-84
2021/11/30 06:03:33;;;;;;;2.80;2.50;;;8.10;77.00;;;;;;4915524;29;20090;-84
2021/11/30 06:05:59;;;;;;;2.67;2.47;;;8.10;76.90;;;;;;4931327;29;20071;-84
2021/11/30 06:08:25;;;;;;;3.05;2.20;;;8.10;76.80;;;;;;4920320;29;20769;-85
2021/11/30 06:10:51;;;;;;;2.42;2.22;;;8.10;76.80;;;;;;4933655;29;20404;-84
2021/11/30 06:13:17;;;;;;;3.00;2.47;;;8.10;76.80;;;;;;4912085;29;20040;-84
2021/11/30 06:15:43;;;;;;;2.47;2.28;;;8.20;76.80;;;;;;4940794;29;20027;-84
2021/11/30 06:18:09;;;;;;;2.17;1.98;;;8.20;76.80;;;;;;4915940;28;20034;-86
2021/11/30 06:20:35;;;;;;;2.15;2.00;;;8.20;76.80;;;;;;4921301;29;20093;-85
2021/11/30 06:23:01;;;;;;;2.20;2.00;;;8.20;76.80;;;;;;4918264;29;20035;-85
2021/11/30 06:25:27;;;;;;;1.90;1.80;;;8.30;76.80;;;;;;4954039;29;20039;-85
2021/11/30 06:27:53;;;;;;;2.35;2.08;;;8.20;76.80;;;;;;4933900;29;20038;-84
2021/11/30 06:30:19;;;;;;;2.72;2.35;;;8.30;76.80;;;;;;4934006;29;20043;-87
2021/11/30 06:32:45;;;;;;;2.38;1.98;;;8.30;76.80;;;;;;4941484;29;20039;-83
2021/11/30 06:35:12;;;;;;;2.22;2.00;;;8.30;76.80;;;;;;4946889;28;20035;-84
2021/11/30 06:37:37;;;;;;;2.30;2.10;;;8.30;76.70;;;;;;4934871;29;20027;-84
2021/11/30 06:40:04;;;;;;;2.40;2.20;;;8.30;76.70;;;;;;4926026;29;20479;-83
2021/11/30 06:42:30;;;;;;;2.45;2.25;;;8.40;76.70;;;;;;4965405;28;20389;-85
2021/11/30 06:44:56;;;;;;;2.25;1.98;;;8.40;76.70;;;;;;4940282;28;20039;-84
2021/11/30 06:47:22;;;;;;;2.33;2.13;;;8.40;76.70;;;;;;4940169;29;20075;-84
2021/11/30 06:49:48;;;;;;;2.22;2.03;;;8.40;76.70;;;;;;4923567;29;20032;-84
2021/11/30 06:52:14;;;;;;;2.95;2.25;;;8.40;76.60;;;;;;4921272;29;20054;-85
2021/11/30 06:54:44;;;;;;;2.30;2.10;;;8.40;76.60;;;;;;4943882;29;20042;-84
2021/11/30 06:57:13;;;;;;;2.30;2.10;;;8.50;76.70;;;;;;4956226;28;20058;-84
2021/11/30 06:59:40;;;;;;;2.50;2.28;;;8.50;76.70;;;;;;4964329;28;20496;-85
2021/11/30 07:02:08;;;;;;;2.47;2.22;;;8.50;77.30;;;;;;4958118;28;20090;-85
2021/11/30 07:04:39;;;;;;;2.20;2.00;;;8.50;76.70;;;;;;4921502;29;20051;-85
2021/11/30 07:12:45;;;;;;;2.30;2.10;;;8.60;76.70;;;;;;4951363;29;20309;-85
2021/11/30 07:15:10;;;;;;;2.00;1.80;;;8.60;76.70;;;;;;4940698;28;20031;-86
2021/11/30 07:17:37;;;;;;;1.95;1.80;;;8.60;76.70;;;;;;4932596;29;20495;-86
2021/11/30 07:20:04;;;;;;;2.20;2.00;;;8.60;76.70;;;;;;4936396;29;20031;-87
2021/11/30 07:22:30;;;;;;;2.55;2.05;;;8.70;76.80;;;;;;4939176;29;20055;-89
2021/11/30 07:24:57;;;;;;;2.10;1.90;;;8.70;76.70;;;;;;4924380;29;20035;-86
2021/11/30 07:27:23;;;;;;;2.10;1.90;;;8.70;76.70;;;;;;4939399;29;20507;-87
2021/11/30 07:29:49;;;;;;;2.25;2.00;;;8.80;76.80;;;;;;4932753;29;20036;-87
2021/11/30 07:32:15;;;;;;;2.33;2.10;;;8.80;76.80;;;;;;4936069;29;20095;-86
2021/11/30 07:34:42;;;;;;;1.73;1.63;;;8.80;76.80;;;;;;4955787;29;20023;-85
2021/11/30 07:37:08;;;;;;;2.00;1.80;;;8.80;76.70;;;;;;4944743;29;20473;-84
2021/11/30 07:39:34;;;;;;;2.00;1.80;;;8.80;76.70;;;;;;4952850;29;20045;-87
2021/11/30 07:42:01;;;;;;;1.85;1.73;;;8.90;77.40;;;;;;4942217;28;20500;-85
2021/11/30 07:44:28;;;;;;;2.17;1.70;;;8.90;76.80;;;;;;4922080;29;20039;-86
2021/11/30 07:46:54;;;;;;;2.45;2.20;;;8.90;76.70;;;;;;4930864;28;20042;-87
2021/11/30 07:49:20;;;;;;;2.55;1.80;;;8.90;76.70;;;;;;4919648;29;20391;-86
2021/11/30 07:51:46;;;;;;;2.60;2.00;;;9.00;76.80;;;;;;4917238;28;20492;-85
2021/11/30 07:54:12;;;;;;;2.58;2.15;;;9.00;76.80;;;;;;4922647;29;20027;-84
2021/11/30 07:56:37;;;;;;;2.15;1.85;;;9.00;76.80;;;;;;4932697;29;20440;-85
2021/11/30 07:59:03;;;;;;;2.40;1.90;;;9.10;76.80;;;;;;4955667;28;20042;-87
2021/11/30 08:01:29;;;;;;;1.88;1.77;;;9.10;76.80;;;;;;4952814;29;20055;-86
2021/11/30 08:03:55;;;;;;;2.97;2.13;;;9.10;76.30;;;;;;4924272;29;20123;-87
2021/11/30 08:06:20;;;;;;;2.42;1.90;;;9.10;76.80;;;;;;4948051;28;20464;-87
2021/11/30 08:08:50;;;;;;;2.58;2.17;;;9.20;76.80;;;;;;4927032;29;20032;-85
2021/11/30 08:11:16;;;;;;;2.78;1.98;;;9.20;76.80;;;;;;4922818;28;20031;-85
2021/11/30 08:13:42;;;;;;;3.03;1.80;;;9.20;76.80;;;;;;4936345;29;20118;-85
2021/11/30 08:16:08;;;;;;;2.58;1.80;;;9.20;76.80;;;;;;4952599;29;20031;-85
2021/11/30 08:18:34;;;;;;;2.30;1.90;;;9.30;76.80;;;;;;4914860;29;20032;-84
2021/11/30 08:20:59;;;;;;;2.60;2.00;;;9.30;76.80;;;;;;4920075;28;20045;-86
2021/11/30 08:23:25;;;;;;;2.60;1.90;;;9.30;76.80;;;;;;4937612;29;20040;-86
2021/11/30 08:25:51;;;;;;;2.65;2.10;;;9.30;77.40;;;;;;4954398;29;20099;-86
2021/11/30 08:28:17;;;;;;;2.40;1.90;;;9.40;76.80;;;;;;4922713;29;20058;-85
2021/11/30 08:30:45;;;;;;;3.35;2.15;;;9.40;76.80;;;;;;4922137;29;20043;-87
2021/11/30 08:33:11;;;;;;;2.63;2.10;;;9.40;76.90;;;;;;4934064;29;20039;-86
2021/11/30 08:35:37;;;;;;;2.17;1.98;;;9.50;76.80;;;;;;4935388;29;20114;-89
2021/11/30 08:38:04;;;;;;;3.65;2.10;;;9.50;77.50;;;;;;4906884;29;20062;-85
2021/11/30 08:40:30;;;;;;;2.58;2.17;;;9.50;76.80;;;;;;4944476;29;20025;-85
2021/11/30 08:42:56;;;;;;;3.70;2.13;;;9.50;76.80;;;;;;4937806;29;20130;-85
2021/11/30 08:45:22;;;;;;;2.45;2.00;;;9.50;76.80;;;;;;4920098;29;20130;-85
2021/11/30 08:47:48;;;;;;;2.90;2.00;;;9.60;76.80;;;;;;4930414;29;20058;-86
2021/11/30 08:50:16;;;;;;;3.00;2.15;;;9.60;76.80;;;;;;4912242;29;20040;-91
2021/11/30 08:52:43;;;;;;;2.47;1.85;;;9.60;76.80;;;;;;4923718;29;20115;-87
2021/11/30 08:55:10;;;;;;;3.78;2.17;;;9.60;76.80;;;;;;4941814;29;20037;-86
2021/11/30 08:57:37;;;;;;;3.28;2.00;;;9.60;76.80;;;;;;4940298;28;20184;-85
2021/11/30 09:00:07;;;;;;;2.25;1.75;;;9.70;76.80;;;;;;4917639;29;20051;-85
2021/11/30 09:02:33;;;;;;;4.22;2.30;;;9.70;76.90;;;;;;4935211;29;20054;-86
2021/11/30 09:04:59;;;;;;;2.33;1.85;;;9.70;76.80;;;;;;4910610;29;20505;-87
2021/11/30 09:07:24;;;;;;;3.03;2.25;;;9.70;76.80;;;;;;4912031;29;20036;-86
2021/11/30 09:09:50;;;;;;;2.53;1.75;;;9.80;76.80;;;;;;4951549;28;20027;-87
2021/11/30 09:12:17;;;;;;;2.95;2.05;;;9.80;76.80;;;;;;4919142;29;20051;-86
2021/11/30 09:14:45;;;;;;;3.10;1.80;;;9.80;76.80;;;;;;4932221;29;20107;-87
2021/11/30 09:17:12;;;;;;;1.88;1.77;;;9.90;76.90;;;;;;4908692;29;20469;-86
2021/11/30 09:19:38;;;;;;;2.33;1.85;;;9.90;76.80;;;;;;4937154;29;20024;-86
2021/11/30 09:22:04;;;;;;;1.95;1.70;;;9.90;76.80;;;;;;4912005;29;20039;-84
2021/11/30 09:24:31;;;;;;;2.58;1.80;;;9.90;76.80;;;;;;4914296;29;20036;-85
2021/11/30 09:26:57;;;;;;;1.70;1.60;;;9.90;76.80;;;;;;4930332;29;20523;-88
2021/11/30 09:29:23;;;;;;;2.95;1.55;;;10.00;76.80;;;;;;4934060;29;20032;-88
2021/11/30 09:31:50;;;;;;;1.67;1.58;;;10.00;76.80;;;;;;4934852;29;20095;-84
2021/11/30 09:34:16;;;;;;;2.30;1.80;;;10.00;76.80;;;;;;4933553;29;20031;-86
2021/11/30 09:36:45;;;;;;;2.03;1.80;;;10.00;76.80;;;;;;4922515;29;20473;-93
2021/11/30 09:39:22;;;;;;;1.73;1.58;;;10.10;76.80;;;;;;4931931;29;20024;-86
2021/11/30 09:41:49;;;;;;;2.17;1.85;;;10.10;76.80;;;;;;4948472;28;20060;-86
2021/11/30 09:44:16;;;;;;;2.28;1.60;;;10.10;76.80;;;;;;4941076;29;20032;-86
2021/11/30 09:46:44;;;;;;;1.70;1.60;;;10.20;77.00;;;;;;4934513;29;20036;-86
2021/11/30 09:49:10;;;;;;;1.88;1.55;;;10.20;76.80;;;;;;4927965;29;20038;-87
2021/11/30 09:51:35;;;;;;;2.00;1.45;;;10.20;76.80;;;;;;4934486;29;20024;-88
2021/11/30 09:54:02;;;;;;;2.78;1.63;;;10.20;76.80;;;;;;4934042;29;20028;-85
2021/11/30 09:56:28;;;;;;;1.65;1.45;;;10.20;76.80;;;;;;4935387;29;20067;-87
2021/11/30 09:58:54;;;;;;;2.17;1.52;;;10.30;76.80;;;;;;4935136;29;20063;-87
2021/11/30 10:01:20;;;;;;;1.42;1.33;;;10.30;76.80;;;;;;4930806;29;20031;-87
2021/11/30 10:03:46;;;;;;;2.83;1.98;;;10.30;76.80;;;;;;4938993;29;20074;-87
2021/11/30 10:06:13;;;;;;;1.77;1.40;;;10.30;76.70;;;;;;4933336;29;20040;-86
2021/11/30 10:08:45;;;;;;;1.67;1.38;;;10.40;76.80;;;;;;4934456;29;20102;-86
2021/11/30 10:11:29;;;;;;;1.55;1.45;;;10.40;76.80;;;;;;4927766;29;20504;-87
2021/11/30 10:14:23;;;;;;;1.58;1.40;;;10.40;76.80;;;;;;4942996;29;20126;-88
2021/11/30 10:17:09;;;;;;;2.55;1.58;;;10.40;76.80;;;;;;4945793;29;20028;-87
2021/11/30 10:19:35;;;;;;;1.42;1.33;;;10.50;76.80;;;;;;4927724;29;20092;-89
2021/11/30 10:22:01;;;;;;;2.13;1.42;;;10.40;76.70;;;;;;4933552;29;20032;-87
2021/11/30 10:24:27;;;;;;;1.60;1.50;;;10.50;76.70;;;;;;4922296;29;20119;-87
2021/11/30 10:26:56;;;;;;;1.30;1.20;;;10.50;76.70;;;;;;4919058;29;20035;-87
2021/11/30 10:29:21;;;;;;;1.45;1.10;;;10.60;76.80;;;;;;4949791;29;20560;-86
2021/11/30 10:31:50;;;;;;;1.40;1.30;;;10.50;76.70;;;;;;4936457;29;20110;-91
2021/11/30 10:34:29;;;;;;;1.30;1.20;;;10.60;76.70;;;;;;4924669;29;20031;-90
2021/11/30 10:37:17;;;;;;;1.10;1.10;;;10.60;76.80;;;;;;4915490;29;20098;-88
2021/11/30 10:39:44;;;;;;;1.73;1.25;;;10.70;76.70;;;;;;4920564;29;20039;-85
2021/11/30 10:42:16;;;;;;;1.20;1.10;;;10.70;76.70;;;;;;4912268;29;20056;-86
2021/11/30 10:44:43;;;;;;;1.20;1.10;;;10.70;76.80;;;;;;4945740;28;20036;-83
2021/11/30 10:47:14;;;;;;;1.20;1.10;;;10.70;76.70;;;;;;4905733;29;20053;-85
2021/11/30 10:49:48;;;;;;;1.02;1.02;;;10.70;76.70;;;;;;4922183;29;20115;-86
2021/11/30 10:52:23;;;;;;;1.10;1.10;;;10.80;76.80;;;;;;4925236;29;20040;-85
2021/11/30 10:54:51;;;;;;;1.10;1.00;;;10.80;76.70;;;;;;4951167;29;20118;-91
2021/11/30 10:57:17;;;;;;;0.80;0.80;;;10.80;76.60;;;;;;4922026;29;20054;-90
2021/11/30 10:59:44;;;;;;;0.90;0.90;;;10.80;76.60;;;;;;4937245;29;20031;-88
2021/11/30 11:02:12;;;;;;;0.98;0.98;;;10.80;76.60;;;;;;4904090;29;20040;-88
2021/11/30 11:04:38;;;;;;;1.30;0.98;;;10.90;76.70;;;;;;4921928;29;20056;-87
2021/11/30 11:07:09;;;;;;;0.80;0.80;;;10.90;76.60;;;;;;4934909;29;20384;-87
2021/11/30 11:09:50;;;;;;;0.80;0.80;;;10.90;76.60;;;;;;4942576;29;20028;-86
2021/11/30 11:12:27;;;;;;;0.93;0.88;;;10.90;76.70;;;;;;4911484;29;20040;-85
2021/11/30 11:14:54;;;;;;;0.82;0.82;;;11.00;76.70;;;;;;4914080;29;20024;-85
2021/11/30 11:17:32;;;;;;;1.10;1.00;;;11.00;76.60;;;;;;4901256;29;20076;-84
2021/11/30 11:19:59;;;;;;;0.70;0.70;;;11.00;76.60;;;;;;4944280;29;20082;-87
2021/11/30 11:22:28;;;;;;;0.95;0.80;;;11.00;76.50;;;;;;4949816;28;20036;-86
2021/11/30 11:25:06;;;;;;;0.63;0.63;;;11.00;76.60;;;;;;4935083;29;20048;-85
2021/11/30 11:27:39;;;;;;;0.60;0.60;;;11.10;76.60;;;;;;4927566;29;20032;-87
2021/11/30 11:30:08;;;;;;;0.70;0.70;;;11.10;76.50;;;;;;4941613;29;20114;-90
2021/11/30 11:32:34;;;;;;;0.90;0.75;;;11.10;76.50;;;;;;4939282;29;20042;-89
2021/11/30 11:35:01;;;;;;;0.80;0.73;;;11.10;76.50;;;;;;4933599;29;20598;-87
2021/11/30 11:37:27;;;;;;;0.80;0.80;;;11.10;76.50;;;;;;4925744;29;20063;-87
2021/11/30 11:39:53;;;;;;;1.02;0.80;;;11.10;76.50;;;;;;4937664;29;20592;-89
2021/11/30 11:42:21;;;;;;;0.80;0.80;;;11.10;76.50;;;;;;4910296;29;20154;-89
2021/11/30 11:44:47;;;;;;;1.13;0.70;;;11.10;76.50;;;;;;4957580;28;20030;-93
2021/11/30 11:47:22;;;;;;;4.03;0.88;;;11.20;76.50;;;;;;4943501;29;20036;-91
2021/11/30 11:49:51;;;;;;;0.70;0.70;;;11.20;76.60;;;;;;4947247;28;20091;-88
2021/11/30 11:52:37;;;;;;;0.80;0.80;;;11.20;76.50;;;;;;4932836;29;20043;-87
2021/11/30 11:55:05;;;;;;;0.95;0.75;;;11.20;76.60;;;;;;4932982;29;20043;-87
2021/11/30 11:57:32;;;;;;;0.80;0.80;;;11.20;76.40;;;;;;4926459;29;20385;-87
2021/11/30 12:00:30;;;;;;;1.20;0.93;;;11.20;76.50;;;;;;4910083;29;20044;-88
2021/11/30 12:03:05;;;;;;;0.75;0.70;;;11.20;76.60;;;;;;4925915;29;20047;-89
2021/11/30 12:05:52;;;;;;;1.15;0.80;;;11.30;76.50;;;;;;4941604;28;20568;-87
2021/11/30 12:08:23;;;;;;;0.80;0.80;;;11.30;76.50;;;;;;4920651;29;20035;-87
2021/11/30 12:10:51;;;;;;;0.85;0.85;;;11.30;76.40;;;;;;4925086;29;20123;-87
2021/11/30 12:13:22;;;;;;;0.80;0.80;;;11.30;76.50;;;;;;4951430;29;20132;-88
2021/11/30 12:16:04;;;;;;;1.23;0.80;;;11.30;76.50;;;;;;4935998;29;20035;-86
2021/11/30 12:18:32;;;;;;;0.70;0.70;;;11.30;76.50;;;;;;4934685;29;20035;-88
2021/11/30 12:21:13;;;;;;;1.10;0.82;;;11.30;76.50;;;;;;4930346;29;20087;-89
2021/11/30 12:23:40;;;;;;;0.80;0.80;;;11.30;76.60;;;;;;4946751;29;20057;-88
2021/11/30 12:26:42;;;;;;;0.98;0.80;;;11.30;76.40;;;;;;4949003;29;20032;-88
2021/11/30 12:29:17;;;;;;;0.77;0.73;;;11.30;76.50;;;;;;4911695;29;20035;-87
2021/11/30 12:31:43;;;;;;;0.85;0.80;;;11.40;76.50;;;;;;4967499;28;20031;-87
2021/11/30 12:34:09;;;;;;;0.73;0.70;;;11.40;76.40;;;;;;4936685;29;20054;-90
2021/11/30 12:36:41;;;;;;;0.85;0.85;;;11.40;76.50;;;;;;4918210;29;20123;-88
2021/11/30 12:39:10;;;;;;;0.60;0.60;;;11.40;76.40;;;;;;4947393;29;20070;-87
2021/11/30 12:41:42;;;;;;;0.85;0.70;;;11.40;76.40;;;;;;4935708;29;20025;-88
2021/11/30 12:44:14;;;;;;;1.05;0.90;;;11.40;76.40;;;;;;4919287;29;20027;-87
2021/11/30 12:46:57;;;;;;;0.68;0.68;;;11.40;76.40;;;;;;4904069;29;20500;-87
2021/11/30 12:49:28;;;;;;;0.85;0.70;;;11.40;76.40;;;;;;4890867;29;20035;-87
2021/11/30 12:52:38;;;;;;;0.82;0.70;;;11.40;76.30;;;;;;4919262;29;20473;-88
2021/11/30 12:55:07;;;;;;;0.80;0.80;;;11.40;76.50;;;;;;4892151;29;20068;-87
2021/11/30 12:57:32;;;;;;;0.80;0.80;;;11.40;76.30;;;;;;4916448;29;20080;-87
2021/11/30 13:00:25;;;;;;;0.88;0.80;;;11.50;76.40;;;;;;4933115;29;20036;-87
2021/11/30 13:02:54;;;;;;;1.30;0.70;;;11.40;76.40;;;;;;4925856;29;20042;-91
2021/11/30 13:05:23;;;;;;;0.70;0.70;;;11.50;76.30;;;;;;4913997;29;20036;-84
2021/11/30 13:07:49;;;;;;;1.15;0.80;;;11.50;76.40;;;;;;4940813;29;20031;-85
2021/11/30 13:10:25;;;;;;;0.93;0.80;;;11.50;76.30;;;;;;4912593;29;20063;-84
2021/11/30 13:12:57;;;;;;;1.10;0.80;;;11.50;76.40;;;;;;4929726;29;20040;-86
2021/11/30 13:15:23;;;;;;;0.70;0.68;;;11.50;76.30;;;;;;4910628;29;20039;-86
2021/11/30 13:17:51;;;;;;;0.75;0.75;;;11.50;76.30;;;;;;4902976;29;20094;-83
2021/11/30 13:20:23;;;;;;;0.88;0.73;;;11.50;76.30;;;;;;4915557;29;20090;-84
2021/11/30 13:22:48;;;;;;;0.80;0.80;;;11.50;76.20;;;;;;4944089;29;20036;-83
2021/11/30 13:25:27;;;;;;;0.90;0.90;;;11.50;76.20;;;;;;4903802;29;20469;-83
2021/11/30 13:27:55;;;;;;;0.70;0.70;;;11.50;76.20;;;;;;4910852;29;20041;-84
2021/11/30 13:30:23;;;;;;;0.95;0.80;;;11.50;76.10;;;;;;4918125;29;20392;-83
2021/11/30 13:32:53;;;;;;;0.70;0.70;;;11.50;76.80;;;;;;4895461;29;20453;-83
2021/11/30 13:35:31;;;;;;;1.05;0.85;;;11.60;76.20;;;;;;4914232;29;20060;-84
2021/11/30 13:38:15;;;;;;;0.80;0.80;;;11.60;76.30;;;;;;4926905;29;20040;-85